Time;durP1;ratioP1;P1;durP2;ratioP2;P2;SDS_P1;SDS_P2;PMS_P1;PMS_P2;Temp;Humidity;BMP_temperature;BMP_pressure;BME280_temperature;BME280_humidity;BME280_pressure;Samples;Min_cycle;Max_cycle;Signal;HPM_P1;HPM_P2
2024/01/09 00:00:17;;;;;;;;;;;16.90;43.50;;;;;;1603117;73;715;-72
2024/01/09 00:02:19;;;;;;;;;;;16.90;43.50;;;;;;1592096;73;733;-72
2024/01/09 00:04:21;;;;;;;;;;;16.90;43.50;;;;;;1599923;73;1916;-71
2024/01/09 00:06:23;;;;;;;;;;;16.90;43.50;;;;;;1597201;73;1164;-72
2024/01/09 00:08:25;;;;;;;;;;;16.90;43.50;;;;;;1556662;75;744;-71
2024/01/09 00:10:27;;;;;;;;;;;16.90;43.40;;;;;;1544272;75;784;-71
2024/01/09 00:12:29;;;;;;;;;;;16.90;43.40;;;;;;1551342;75;685;-71
2024/01/09 00:14:31;;;;;;;;;;;17.00;43.50;;;;;;1554480;75;737;-71
2024/01/09 00:16:33;;;;;;;;;;;17.00;43.50;;;;;;1546220;76;1153;-71
2024/01/09 00:18:35;;;;;;;;;;;17.00;43.50;;;;;;1536163;75;672;-72
2024/01/09 00:20:37;;;;;;;;;;;16.90;43.50;;;;;;1584133;74;727;-70
2024/01/09 00:22:39;;;;;;;;;;;17.00;43.50;;;;;;1593451;73;720;-72
2024/01/09 00:24:41;;;;;;;;;;;17.00;43.50;;;;;;1591621;73;1926;-69
2024/01/09 00:26:43;;;;;;;;;;;17.00;43.60;;;;;;1607704;73;1177;-69
2024/01/09 00:28:45;;;;;;;;;;;17.00;43.50;;;;;;1610598;73;676;-70
2024/01/09 00:30:46;;;;;;;;;;;17.00;43.50;;;;;;1598987;73;732;-71
2024/01/09 00:32:49;;;;;;;;;;;16.90;43.50;;;;;;1601384;73;768;-71
2024/01/09 00:34:51;;;;;;;;;;;17.00;43.50;;;;;;1606472;73;678;-72
2024/01/09 00:36:53;;;;;;;;;;;17.00;43.50;;;;;;1604635;73;1212;-72
2024/01/09 00:38:54;;;;;;;;;;;17.00;43.50;;;;;;1592133;73;781;-72
2024/01/09 00:40:57;;;;;;;;;;;17.00;43.40;;;;;;1604563;73;578;-71
2024/01/09 00:42:58;;;;;;;;;;;17.00;43.40;;;;;;1596039;73;666;-71
2024/01/09 00:45:01;;;;;;;;;;;17.00;43.40;;;;;;1604328;73;1928;-71
2024/01/09 00:47:03;;;;;;;;;;;17.00;43.30;;;;;;1603394;73;1149;-70
2024/01/09 00:49:04;;;;;;;;;;;17.00;43.30;;;;;;1603858;73;837;-72
2024/01/09 00:51:06;;;;;;;;;;;17.00;43.30;;;;;;1602165;73;788;-71
2024/01/09 00:53:09;;;;;;;;;;;17.10;43.40;;;;;;1608682;73;742;-71
2024/01/09 00:55:12;;;;;;;;;;;17.00;43.30;;;;;;1592187;73;726;-72
2024/01/09 00:57:13;;;;;;;;;;;17.00;43.20;;;;;;1587337;73;1136;-72
2024/01/09 00:59:15;;;;;;;;;;;17.10;43.30;;;;;;1603754;73;756;-70
2024/01/09 01:01:17;;;;;;;;;;;17.10;43.20;;;;;;1591976;73;800;-71
2024/01/09 01:03:19;;;;;;;;;;;17.10;43.20;;;;;;1608678;73;696;-71
2024/01/09 01:05:21;;;;;;;;;;;17.00;43.10;;;;;;1599402;73;1950;-72
2024/01/09 01:07:23;;;;;;;;;;;17.10;43.10;;;;;;1592258;73;1145;-73
2024/01/09 01:09:25;;;;;;;;;;;17.10;43.10;;;;;;1610074;73;734;-71
2024/01/09 01:11:27;;;;;;;;;;;17.10;43.10;;;;;;1597847;73;806;-72
2024/01/09 01:13:29;;;;;;;;;;;17.10;43.10;;;;;;1599198;73;724;-72
2024/01/09 01:15:31;;;;;;;;;;;17.10;43.10;;;;;;1582483;73;715;-72
2024/01/09 01:17:33;;;;;;;;;;;17.10;43.10;;;;;;1609667;73;1149;-70
2024/01/09 01:19:35;;;;;;;;;;;17.10;43.10;;;;;;1600667;73;850;-70
2024/01/09 01:21:37;;;;;;;;;;;17.00;43.00;;;;;;1605366;73;728;-72
2024/01/09 01:23:38;;;;;;;;;;;17.10;43.20;;;;;;1612203;73;765;-72
2024/01/09 01:25:40;;;;;;;;;;;17.10;43.10;;;;;;1605578;73;1924;-70
2024/01/09 01:27:42;;;;;;;;;;;17.10;43.10;;;;;;1605878;73;784;-71
2024/01/09 01:29:44;;;;;;;;;;;17.00;43.10;;;;;;1590583;73;652;-72
2024/01/09 01:31:46;;;;;;;;;;;17.10;43.00;;;;;;1600511;73;774;-70
2024/01/09 01:33:48;;;;;;;;;;;17.10;43.00;;;;;;1601875;73;809;-71
2024/01/09 01:35:50;;;;;;;;;;;17.10;43.10;;;;;;1601447;73;1138;-72
2024/01/09 01:37:52;;;;;;;;;;;17.10;43.00;;;;;;1601997;72;666;-69
2024/01/09 01:39:54;;;;;;;;;;;17.10;43.00;;;;;;1597312;73;679;-72
2024/01/09 01:41:55;;;;;;;;;;;17.10;43.00;;;;;;1593280;73;771;-71
2024/01/09 01:43:57;;;;;;;;;;;17.10;42.90;;;;;;1600813;73;791;-70
2024/01/09 01:45:59;;;;;;;;;;;17.10;42.90;;;;;;1609323;73;1933;-70
2024/01/09 01:48:01;;;;;;;;;;;17.10;42.90;;;;;;1595359;73;738;-70
2024/01/09 01:50:03;;;;;;;;;;;17.10;42.90;;;;;;1601744;73;745;-72
2024/01/09 01:52:05;;;;;;;;;;;17.10;42.90;;;;;;1601174;73;743;-72
2024/01/09 01:54:07;;;;;;;;;;;17.10;42.90;;;;;;1599721;73;760;-70
2024/01/09 01:56:09;;;;;;;;;;;17.10;42.90;;;;;;1595945;73;1272;-71
2024/01/09 01:58:11;;;;;;;;;;;17.10;42.90;;;;;;1592774;73;728;-71
2024/01/09 02:00:13;;;;;;;;;;;17.10;42.90;;;;;;1604192;73;725;-71
2024/01/09 02:02:15;;;;;;;;;;;17.10;42.90;;;;;;1594874;73;726;-70
2024/01/09 02:04:17;;;;;;;;;;;17.10;42.90;;;;;;1597877;73;867;-70
2024/01/09 02:06:19;;;;;;;;;;;17.10;43.00;;;;;;1606453;73;1144;-72
2024/01/09 02:08:22;;;;;;;;;;;17.10;43.00;;;;;;1597666;73;692;-71
2024/01/09 02:10:24;;;;;;;;;;;17.10;42.80;;;;;;1609179;73;804;-72
2024/01/09 02:12:26;;;;;;;;;;;17.10;42.90;;;;;;1602258;73;772;-71
2024/01/09 02:14:29;;;;;;;;;;;17.10;42.90;;;;;;1614530;73;746;-72
2024/01/09 02:16:30;;;;;;;;;;;17.10;43.00;;;;;;1600764;72;1147;-69
2024/01/09 02:18:32;;;;;;;;;;;17.10;42.90;;;;;;1603019;72;823;-69
2024/01/09 02:20:34;;;;;;;;;;;17.00;42.80;;;;;;1597767;73;765;-71
2024/01/09 02:22:36;;;;;;;;;;;17.10;42.90;;;;;;1600345;73;800;-70
2024/01/09 02:24:38;;;;;;;;;;;17.10;43.00;;;;;;1607256;73;1940;-71
2024/01/09 02:26:41;;;;;;;;;;;17.10;42.90;;;;;;1603932;73;1167;-72
2024/01/09 02:28:47;;;;;;;;;;;17.10;43.00;;;;;;1597833;73;715;-71
2024/01/09 02:30:49;;;;;;;;;;;17.10;43.00;;;;;;1606046;73;678;-70
2024/01/09 02:32:51;;;;;;;;;;;17.10;43.10;;;;;;1592382;73;741;-71
2024/01/09 02:34:53;;;;;;;;;;;17.00;42.90;;;;;;1591241;73;836;-72
2024/01/09 02:36:54;;;;;;;;;;;17.10;42.90;;;;;;1603689;72;1144;-71
2024/01/09 02:38:56;;;;;;;;;;;17.00;43.00;;;;;;1601031;73;807;-74
2024/01/09 02:40:58;;;;;;;;;;;17.10;43.00;;;;;;1601474;73;686;-72
2024/01/09 02:43:00;;;;;;;;;;;17.10;43.00;;;;;;1596528;73;773;-70
2024/01/09 02:45:02;;;;;;;;;;;17.10;43.00;;;;;;1607072;73;1928;-68
2024/01/09 02:47:04;;;;;;;;;;;17.10;43.00;;;;;;1592771;73;1110;-71
2024/01/09 02:49:06;;;;;;;;;;;17.00;42.90;;;;;;1598822;73;737;-70
2024/01/09 02:51:08;;;;;;;;;;;17.00;43.00;;;;;;1605250;73;715;-71
2024/01/09 02:53:10;;;;;;;;;;;17.10;43.10;;;;;;1597886;73;1634;-71
2024/01/09 02:55:12;;;;;;;;;;;17.10;43.10;;;;;;1606401;73;697;-69
2024/01/09 02:57:15;;;;;;;;;;;17.10;43.00;;;;;;1590777;73;1117;-69
2024/01/09 02:59:17;;;;;;;;;;;17.10;43.10;;;;;;1603689;73;737;-71
2024/01/09 03:01:19;;;;;;;;;;;17.00;42.90;;;;;;1590800;73;732;-72
2024/01/09 03:03:21;;;;;;;;;;;17.10;43.00;;;;;;1600779;73;730;-70
2024/01/09 03:05:22;;;;;;;;;;;17.10;43.00;;;;;;1598091;73;1966;-70
2024/01/09 03:07:24;;;;;;;;;;;17.00;42.90;;;;;;1595002;73;1206;-69
2024/01/09 03:09:26;;;;;;;;;;;17.00;42.90;;;;;;1607663;73;725;-72
2024/01/09 03:11:28;;;;;;;;;;;17.00;43.00;;;;;;1597192;73;583;-71
2024/01/09 03:13:30;;;;;;;;;;;17.00;42.90;;;;;;1604113;73;932;-72
2024/01/09 03:15:32;;;;;;;;;;;17.00;43.00;;;;;;1588402;73;729;-72
2024/01/09 03:17:34;;;;;;;;;;;17.00;42.90;;;;;;1610871;73;1110;-68
2024/01/09 03:19:35;;;;;;;;;;;17.00;42.90;;;;;;1597567;73;653;-71
2024/01/09 03:21:37;;;;;;;;;;;17.00;42.90;;;;;;1606703;73;634;-70
2024/01/09 03:23:39;;;;;;;;;;;17.10;43.00;;;;;;1594753;73;816;-71
2024/01/09 03:25:41;;;;;;;;;;;17.00;43.00;;;;;;1608199;73;1930;-67
2024/01/09 03:27:43;;;;;;;;;;;17.00;42.90;;;;;;1604718;73;757;-68
2024/01/09 03:29:45;;;;;;;;;;;17.00;42.90;;;;;;1608514;73;766;-71
2024/01/09 03:31:47;;;;;;;;;;;17.00;42.90;;;;;;1604654;73;749;-71
2024/01/09 03:33:49;;;;;;;;;;;17.00;42.90;;;;;;1608476;73;789;-71
2024/01/09 03:35:51;;;;;;;;;;;17.00;43.00;;;;;;1603304;73;1138;-71
2024/01/09 03:37:53;;;;;;;;;;;17.00;42.90;;;;;;1597144;73;725;-71
2024/01/09 03:39:54;;;;;;;;;;;17.00;43.00;;;;;;1594423;73;828;-71
2024/01/09 03:41:56;;;;;;;;;;;17.00;43.00;;;;;;1601093;73;812;-71
2024/01/09 03:43:58;;;;;;;;;;;17.00;43.00;;;;;;1604163;73;797;-70
2024/01/09 03:46:00;;;;;;;;;;;17.00;43.00;;;;;;1592250;73;1930;-68
2024/01/09 03:48:02;;;;;;;;;;;17.00;43.00;;;;;;1614199;73;1540;-72
2024/01/09 03:50:04;;;;;;;;;;;16.90;42.90;;;;;;1586559;73;682;-72
2024/01/09 03:52:06;;;;;;;;;;;17.00;42.90;;;;;;1604671;73;994;-69
2024/01/09 03:54:08;;;;;;;;;;;17.00;42.90;;;;;;1591777;73;656;-69
2024/01/09 03:56:10;;;;;;;;;;;17.00;42.90;;;;;;1615399;73;1137;-71
2024/01/09 03:58:12;;;;;;;;;;;17.00;42.90;;;;;;1602723;73;780;-69
2024/01/09 04:00:14;;;;;;;;;;;17.00;42.90;;;;;;1607765;73;712;-69
2024/01/09 04:02:16;;;;;;;;;;;17.00;42.90;;;;;;1598273;73;682;-69
2024/01/09 04:04:18;;;;;;;;;;;17.00;43.00;;;;;;1598278;73;785;-72
2024/01/09 04:06:20;;;;;;;;;;;17.00;43.10;;;;;;1598642;73;1922;-72
2024/01/09 04:08:22;;;;;;;;;;;17.00;43.00;;;;;;1600190;73;623;-68
2024/01/09 04:10:23;;;;;;;;;;;17.00;43.00;;;;;;1599570;73;809;-70
2024/01/09 04:12:25;;;;;;;;;;;17.00;43.10;;;;;;1603886;73;809;-71
2024/01/09 04:14:27;;;;;;;;;;;17.00;43.00;;;;;;1596533;73;791;-68
2024/01/09 04:16:29;;;;;;;;;;;17.00;43.00;;;;;;1588390;73;1127;-68
2024/01/09 04:18:31;;;;;;;;;;;17.00;43.00;;;;;;1609037;73;689;-72
2024/01/09 04:20:33;;;;;;;;;;;17.00;43.00;;;;;;1606443;73;743;-71
2024/01/09 04:22:35;;;;;;;;;;;17.00;43.00;;;;;;1601628;73;754;-72
2024/01/09 04:24:36;;;;;;;;;;;17.00;43.00;;;;;;1606431;73;802;-72
2024/01/09 04:26:38;;;;;;;;;;;17.00;43.00;;;;;;1608482;73;1922;-73
2024/01/09 04:28:40;;;;;;;;;;;17.00;43.10;;;;;;1603389;73;728;-72
2024/01/09 04:30:42;;;;;;;;;;;17.00;43.00;;;;;;1603401;73;727;-69
2024/01/09 04:32:44;;;;;;;;;;;16.90;43.00;;;;;;1595283;73;617;-71
2024/01/09 04:34:46;;;;;;;;;;;16.90;43.00;;;;;;1595885;73;788;-71
2024/01/09 04:36:48;;;;;;;;;;;17.00;43.00;;;;;;1608717;73;1158;-72
2024/01/09 04:38:50;;;;;;;;;;;17.00;43.00;;;;;;1599679;73;630;-69
2024/01/09 04:40:52;;;;;;;;;;;17.00;43.00;;;;;;1604456;73;682;-70
2024/01/09 04:42:54;;;;;;;;;;;17.00;43.00;;;;;;1605275;73;733;-70
2024/01/09 04:44:55;;;;;;;;;;;17.00;43.00;;;;;;1597928;73;832;-72
2024/01/09 04:46:57;;;;;;;;;;;16.90;43.00;;;;;;1600738;73;1937;-71
2024/01/09 04:49:01;;;;;;;;;;;16.90;43.00;;;;;;1595644;73;730;-68
2024/01/09 04:51:03;;;;;;;;;;;16.90;43.00;;;;;;1606661;73;750;-72
2024/01/09 04:53:04;;;;;;;;;;;16.90;43.00;;;;;;1603025;73;744;-71
2024/01/09 04:55:06;;;;;;;;;;;16.90;43.00;;;;;;1599253;73;728;-70
2024/01/09 04:57:08;;;;;;;;;;;16.90;43.00;;;;;;1599310;73;1104;-69
2024/01/09 04:59:10;;;;;;;;;;;16.90;43.00;;;;;;1602823;73;708;-73
2024/01/09 05:01:12;;;;;;;;;;;16.90;43.00;;;;;;1595607;73;813;-72
2024/01/09 05:03:14;;;;;;;;;;;16.90;42.90;;;;;;1610537;73;646;-72
2024/01/09 05:05:16;;;;;;;;;;;16.90;43.00;;;;;;1610393;73;735;-73
2024/01/09 05:07:18;;;;;;;;;;;16.90;43.00;;;;;;1603315;72;1934;-70
2024/01/09 05:09:20;;;;;;;;;;;16.90;43.00;;;;;;1603864;73;683;-68
2024/01/09 05:11:22;;;;;;;;;;;16.90;43.00;;;;;;1600670;72;1061;-69
2024/01/09 05:13:23;;;;;;;;;;;16.90;43.00;;;;;;1601749;73;659;-71
2024/01/09 05:15:25;;;;;;;;;;;16.90;43.10;;;;;;1596240;73;695;-70
2024/01/09 05:17:27;;;;;;;;;;;16.90;43.00;;;;;;1592098;73;1115;-71
2024/01/09 05:19:29;;;;;;;;;;;16.90;43.10;;;;;;1601319;73;724;-69
2024/01/09 05:21:31;;;;;;;;;;;16.90;43.10;;;;;;1597854;73;708;-71
2024/01/09 05:23:33;;;;;;;;;;;16.90;43.00;;;;;;1600325;73;703;-71
2024/01/09 05:25:35;;;;;;;;;;;16.90;43.00;;;;;;1606838;73;1909;-73
2024/01/09 05:27:37;;;;;;;;;;;16.90;43.10;;;;;;1609208;73;1067;-72
2024/01/09 05:29:39;;;;;;;;;;;16.90;43.00;;;;;;1604924;73;721;-70
2024/01/09 05:31:44;;;;;;;;;;;16.90;43.00;;;;;;1589721;73;696;-72
2024/01/09 05:33:46;;;;;;;;;;;16.90;43.10;;;;;;1599256;73;705;-71
2024/01/09 05:35:47;;;;;;;;;;;16.90;43.10;;;;;;1592026;72;1096;-72
2024/01/09 05:37:49;;;;;;;;;;;16.90;43.10;;;;;;1591209;73;690;-72
2024/01/09 05:39:51;;;;;;;;;;;16.90;43.00;;;;;;1600135;73;787;-70
2024/01/09 05:41:55;;;;;;;;;;;16.90;43.00;;;;;;1600730;73;1381;-71
2024/01/09 05:43:57;;;;;;;;;;;16.90;43.00;;;;;;1600422;73;731;-70
2024/01/09 05:45:59;;;;;;;;;;;16.90;43.10;;;;;;1595572;73;1907;-73
2024/01/09 05:48:01;;;;;;;;;;;16.90;43.00;;;;;;1601490;73;746;-72
2024/01/09 05:50:03;;;;;;;;;;;16.90;43.00;;;;;;1599827;73;738;-69
2024/01/09 05:52:05;;;;;;;;;;;16.80;43.00;;;;;;1602832;73;789;-70
2024/01/09 05:54:06;;;;;;;;;;;16.80;43.00;;;;;;1599504;73;794;-71
2024/01/09 05:56:08;;;;;;;;;;;16.90;43.10;;;;;;1590053;73;1159;-72
2024/01/09 05:58:10;;;;;;;;;;;16.90;43.10;;;;;;1603228;73;667;-72
2024/01/09 06:00:12;;;;;;;;;;;16.90;43.10;;;;;;1599080;73;786;-72
2024/01/09 06:02:14;;;;;;;;;;;16.90;43.00;;;;;;1595357;73;723;-70
2024/01/09 06:04:16;;;;;;;;;;;16.90;43.00;;;;;;1597160;73;601;-72
2024/01/09 06:06:18;;;;;;;;;;;16.90;43.00;;;;;;1607138;73;1938;-69
2024/01/09 06:08:20;;;;;;;;;;;16.90;42.90;;;;;;1602712;73;718;-70
2024/01/09 06:10:22;;;;;;;;;;;16.90;42.90;;;;;;1602302;73;696;-71
2024/01/09 06:12:24;;;;;;;;;;;17.00;42.80;;;;;;1595912;73;670;-69
2024/01/09 06:14:25;;;;;;;;;;;17.00;42.80;;;;;;1590259;73;727;-72
2024/01/09 06:16:27;;;;;;;;;;;16.90;42.80;;;;;;1607062;73;1173;-72
2024/01/09 06:18:29;;;;;;;;;;;16.90;42.70;;;;;;1605414;73;726;-72
2024/01/09 06:20:31;;;;;;;;;;;16.90;42.80;;;;;;1592183;73;785;-71
2024/01/09 06:22:33;;;;;;;;;;;16.80;42.70;;;;;;1602744;73;798;-72
2024/01/09 06:24:35;;;;;;;;;;;17.00;42.80;;;;;;1604748;73;773;-73
2024/01/09 06:26:37;;;;;;;;;;;16.90;42.80;;;;;;1600638;73;1954;-71
2024/01/09 06:28:39;;;;;;;;;;;17.00;42.70;;;;;;1605311;73;790;-72
2024/01/09 06:30:40;;;;;;;;;;;16.90;42.70;;;;;;1595471;73;729;-71
2024/01/09 06:32:42;;;;;;;;;;;17.00;42.60;;;;;;1597260;73;743;-71
2024/01/09 06:34:44;;;;;;;;;;;17.00;42.70;;;;;;1600540;73;762;-72
2024/01/09 06:36:47;;;;;;;;;;;17.00;42.60;;;;;;1602683;73;1521;-69
2024/01/09 06:38:48;;;;;;;;;;;17.00;42.70;;;;;;1588240;73;746;-72
2024/01/09 06:40:50;;;;;;;;;;;17.10;42.70;;;;;;1601980;73;798;-70
2024/01/09 06:42:52;;;;;;;;;;;17.00;42.60;;;;;;1600325;73;758;-68
2024/01/09 06:44:54;;;;;;;;;;;17.00;42.60;;;;;;1604027;73;723;-69
2024/01/09 06:46:56;;;;;;;;;;;17.00;42.60;;;;;;1610820;73;1937;-69
2024/01/09 06:48:58;;;;;;;;;;;17.00;42.70;;;;;;1611494;73;781;-70
2024/01/09 06:51:00;;;;;;;;;;;17.00;42.60;;;;;;1599860;73;766;-72
2024/01/09 06:53:02;;;;;;;;;;;17.00;42.70;;;;;;1608739;73;693;-71
2024/01/09 06:55:04;;;;;;;;;;;17.00;42.60;;;;;;1604841;73;668;-70
2024/01/09 06:57:06;;;;;;;;;;;17.00;42.60;;;;;;1596890;73;1105;-69
2024/01/09 06:59:08;;;;;;;;;;;17.00;42.50;;;;;;1606216;73;782;-71
2024/01/09 07:01:10;;;;;;;;;;;17.00;42.50;;;;;;1585345;73;723;-69
2024/01/09 07:03:12;;;;;;;;;;;17.00;42.60;;;;;;1600191;73;728;-69
2024/01/09 07:05:14;;;;;;;;;;;17.00;42.50;;;;;;1604271;73;688;-69
2024/01/09 07:07:16;;;;;;;;;;;17.00;42.60;;;;;;1596889;73;1943;-72
2024/01/09 07:09:18;;;;;;;;;;;17.00;42.50;;;;;;1603558;73;607;-71
2024/01/09 07:11:20;;;;;;;;;;;17.00;42.60;;;;;;1596441;73;720;-67
2024/01/09 07:13:22;;;;;;;;;;;17.00;42.60;;;;;;1607475;73;795;-69
2024/01/09 07:15:23;;;;;;;;;;;17.10;42.70;;;;;;1607667;73;736;-70
2024/01/09 07:17:25;;;;;;;;;;;17.10;42.70;;;;;;1586093;73;1140;-72
2024/01/09 07:19:27;;;;;;;;;;;17.00;42.60;;;;;;1611135;73;791;-69
2024/01/09 07:21:29;;;;;;;;;;;17.00;42.60;;;;;;1610393;73;719;-70
2024/01/09 07:23:31;;;;;;;;;;;17.00;42.50;;;;;;1596493;73;720;-71
2024/01/09 07:25:33;;;;;;;;;;;17.00;42.50;;;;;;1595693;73;655;-72
2024/01/09 07:27:35;;;;;;;;;;;17.10;42.60;;;;;;1610523;73;1963;-72
2024/01/09 07:29:37;;;;;;;;;;;17.00;42.50;;;;;;1605339;73;685;-71
2024/01/09 07:31:40;;;;;;;;;;;17.10;42.60;;;;;;1607060;73;694;-72
2024/01/09 07:33:42;;;;;;;;;;;17.00;42.50;;;;;;1596556;73;1388;-68
2024/01/09 07:35:44;;;;;;;;;;;17.00;42.40;;;;;;1604139;73;752;-71
2024/01/09 07:37:46;;;;;;;;;;;17.00;42.40;;;;;;1600250;73;757;-69
2024/01/09 07:39:48;;;;;;;;;;;17.00;42.40;;;;;;1592920;73;700;-69
2024/01/09 07:41:50;;;;;;;;;;;17.00;42.40;;;;;;1598628;73;722;-69
2024/01/09 07:43:52;;;;;;;;;;;17.00;42.40;;;;;;1600116;73;692;-72
2024/01/09 07:45:54;;;;;;;;;;;17.00;42.40;;;;;;1607976;73;1152;-71
2024/01/09 07:47:56;;;;;;;;;;;17.00;42.40;;;;;;1603615;73;1933;-69
2024/01/09 07:49:58;;;;;;;;;;;17.00;42.40;;;;;;1599829;72;794;-72
2024/01/09 07:52:00;;;;;;;;;;;17.00;42.40;;;;;;1602277;73;848;-72
2024/01/09 07:54:02;;;;;;;;;;;17.00;42.30;;;;;;1604734;73;629;-71
2024/01/09 07:56:04;;;;;;;;;;;17.00;42.30;;;;;;1602793;73;1103;-74
2024/01/09 07:58:06;;;;;;;;;;;17.10;42.40;;;;;;1567636;74;637;-71
2024/01/09 08:00:09;;;;;;;;;;;17.00;42.30;;;;;;1603471;73;696;-71
2024/01/09 08:02:10;;;;;;;;;;;17.00;42.30;;;;;;1595308;73;615;-71
2024/01/09 08:04:13;;;;;;;;;;;17.00;42.40;;;;;;1604301;73;748;-72
2024/01/09 08:06:15;;;;;;;;;;;17.00;42.30;;;;;;1595710;73;1148;-70
2024/01/09 08:08:17;;;;;;;;;;;17.00;42.40;;;;;;1598429;73;1916;-72
2024/01/09 08:10:19;;;;;;;;;;;17.00;42.40;;;;;;1589803;73;662;-69
2024/01/09 08:12:21;;;;;;;;;;;17.00;42.40;;;;;;1598854;73;816;-71
2024/01/09 08:14:23;;;;;;;;;;;17.00;42.40;;;;;;1596857;73;716;-72
2024/01/09 08:16:25;;;;;;;;;;;17.00;42.40;;;;;;1614033;73;1149;-69
2024/01/09 08:18:27;;;;;;;;;;;17.00;42.30;;;;;;1604548;73;713;-69
2024/01/09 08:20:29;;;;;;;;;;;17.00;42.50;;;;;;1602367;73;780;-72
2024/01/09 08:22:31;;;;;;;;;;;17.00;42.40;;;;;;1598726;73;679;-72
2024/01/09 08:24:32;;;;;;;;;;;17.00;42.50;;;;;;1602079;73;718;-71
2024/01/09 08:26:34;;;;;;;;;;;17.00;42.40;;;;;;1607193;73;1079;-69
2024/01/09 08:28:36;;;;;;;;;;;17.00;42.40;;;;;;1603974;73;1929;-73
2024/01/09 08:30:38;;;;;;;;;;;16.90;42.40;;;;;;1603534;73;1532;-71
2024/01/09 08:32:40;;;;;;;;;;;17.00;42.50;;;;;;1599402;73;735;-70
2024/01/09 08:34:42;;;;;;;;;;;17.00;42.50;;;;;;1591662;73;707;-71
2024/01/09 08:36:45;;;;;;;;;;;17.00;42.60;;;;;;1601506;73;1147;-68
2024/01/09 08:38:46;;;;;;;;;;;17.00;42.60;;;;;;1601571;73;794;-72
2024/01/09 08:40:53;;;;;;;;;;;16.90;42.60;;;;;;1603856;73;717;-71
2024/01/09 08:42:52;;;;;;;;;;;17.00;42.60;;;;;;1603658;73;1718;-71
2024/01/09 08:44:54;;;;;;;;;;;17.00;42.60;;;;;;1598893;73;651;-68
2024/01/09 08:46:56;;;;;;;;;;;17.00;42.60;;;;;;1596002;73;1945;-71
2024/01/09 08:48:57;;;;;;;;;;;17.00;42.60;;;;;;1599657;73;753;-72
2024/01/09 08:50:59;;;;;;;;;;;16.90;42.60;;;;;;1595985;73;673;-72
2024/01/09 08:53:01;;;;;;;;;;;16.90;42.60;;;;;;1598079;73;723;-68
2024/01/09 08:55:04;;;;;;;;;;;16.90;42.60;;;;;;1601005;73;739;-72
2024/01/09 08:57:06;;;;;;;;;;;16.90;42.60;;;;;;1596841;73;1107;-69
2024/01/09 08:59:08;;;;;;;;;;;16.90;42.60;;;;;;1606188;73;588;-70
2024/01/09 09:01:10;;;;;;;;;;;16.90;42.60;;;;;;1599934;73;735;-72
2024/01/09 09:03:12;;;;;;;;;;;17.00;42.70;;;;;;1596949;73;802;-72
2024/01/09 09:05:14;;;;;;;;;;;16.90;42.60;;;;;;1601602;73;754;-72
2024/01/09 09:07:16;;;;;;;;;;;16.90;42.60;;;;;;1609113;73;1946;-72
2024/01/09 09:09:18;;;;;;;;;;;17.00;42.60;;;;;;1598465;73;877;-72
2024/01/09 09:11:20;;;;;;;;;;;16.90;42.60;;;;;;1600853;73;714;-73
2024/01/09 09:13:22;;;;;;;;;;;17.00;42.60;;;;;;1600987;73;742;-72
2024/01/09 09:15:24;;;;;;;;;;;16.90;42.60;;;;;;1593128;73;793;-71
2024/01/09 09:17:26;;;;;;;;;;;17.00;42.60;;;;;;1614387;73;1159;-71
2024/01/09 09:19:31;;;;;;;;;;;17.00;42.60;;;;;;1602156;73;676;-69
2024/01/09 09:21:32;;;;;;;;;;;17.00;42.60;;;;;;1598147;73;1699;-71
2024/01/09 09:23:34;;;;;;;;;;;16.90;42.60;;;;;;1611455;73;773;-70
2024/01/09 09:25:36;;;;;;;;;;;16.90;42.60;;;;;;1598198;73;1532;-71
2024/01/09 09:27:40;;;;;;;;;;;16.90;42.70;;;;;;1601306;73;1946;-68
2024/01/09 09:29:41;;;;;;;;;;;17.00;42.60;;;;;;1597388;73;1711;-73
2024/01/09 09:31:44;;;;;;;;;;;17.00;42.60;;;;;;1603225;73;747;-71
2024/01/09 09:33:45;;;;;;;;;;;17.00;42.60;;;;;;1600567;73;745;-72
2024/01/09 09:35:47;;;;;;;;;;;16.90;42.70;;;;;;1601386;73;1126;-72
2024/01/09 09:37:49;;;;;;;;;;;16.90;42.70;;;;;;1601868;73;710;-71
2024/01/09 09:39:51;;;;;;;;;;;16.90;42.60;;;;;;1600742;73;813;-70
2024/01/09 09:41:55;;;;;;;;;;;16.90;42.60;;;;;;1600389;73;768;-71
2024/01/09 09:43:57;;;;;;;;;;;16.90;42.60;;;;;;1592083;73;720;-71
2024/01/09 09:45:58;;;;;;;;;;;16.90;42.60;;;;;;1597205;73;1161;-72
2024/01/09 09:48:00;;;;;;;;;;;16.90;42.60;;;;;;1610656;73;1936;-72
2024/01/09 09:50:02;;;;;;;;;;;16.90;42.60;;;;;;1597818;73;636;-72
2024/01/09 09:52:04;;;;;;;;;;;16.90;42.70;;;;;;1603308;73;888;-72
2024/01/09 09:54:06;;;;;;;;;;;17.00;42.70;;;;;;1608399;73;752;-71
2024/01/09 09:56:08;;;;;;;;;;;16.90;42.70;;;;;;1606488;73;1142;-68
2024/01/09 09:58:10;;;;;;;;;;;16.90;42.70;;;;;;1599496;73;771;-68
2024/01/09 10:00:12;;;;;;;;;;;16.90;42.70;;;;;;1605797;73;722;-71
2024/01/09 10:02:15;;;;;;;;;;;16.90;42.60;;;;;;1599876;73;797;-71
2024/01/09 10:04:24;;;;;;;;;;;16.90;42.60;;;;;;1604676;73;1346;-70
2024/01/09 10:06:25;;;;;;;;;;;16.90;42.80;;;;;;1593682;73;1576;-72
2024/01/09 10:08:27;;;;;;;;;;;17.10;42.70;;;;;;1605000;73;1902;-70
2024/01/09 10:10:29;;;;;;;;;;;16.80;42.60;;;;;;1604234;73;742;-72
2024/01/09 10:12:31;;;;;;;;;;;16.90;42.70;;;;;;1600333;73;720;-73
2024/01/09 10:14:33;;;;;;;;;;;16.80;42.50;;;;;;1590943;73;703;-70
2024/01/09 10:16:50;;;;;;;;;;;16.90;42.60;;;;;;1588291;73;1154;-70
2024/01/09 10:18:55;;;;;;;;;;;16.80;42.60;;;;;;1597649;73;692;-71
2024/01/09 10:20:57;;;;;;;;;;;16.90;42.80;;;;;;1588955;73;1193;-71
2024/01/09 10:22:59;;;;;;;;;;;16.90;42.70;;;;;;1597570;73;1559;-69
2024/01/09 10:25:03;;;;;;;;;;;16.90;42.60;;;;;;1595290;73;726;-72
2024/01/09 10:27:05;;;;;;;;;;;16.80;42.60;;;;;;1600651;73;1172;-70
2024/01/09 10:29:08;;;;;;;;;;;16.90;42.70;;;;;;1563662;74;1897;-69
2024/01/09 10:31:10;;;;;;;;;;;16.90;42.70;;;;;;1600280;73;670;-70
2024/01/09 10:33:13;;;;;;;;;;;16.90;42.70;;;;;;1604466;73;769;-70
2024/01/09 10:35:15;;;;;;;;;;;16.90;42.70;;;;;;1601993;73;803;-72
2024/01/09 10:37:17;;;;;;;;;;;16.90;42.80;;;;;;1603725;73;1147;-70
2024/01/09 10:39:18;;;;;;;;;;;16.90;42.70;;;;;;1600716;73;796;-70
2024/01/09 10:41:21;;;;;;;;;;;16.80;42.60;;;;;;1606937;73;770;-68
2024/01/09 10:43:26;;;;;;;;;;;16.80;42.60;;;;;;1593090;73;760;-69
2024/01/09 10:45:28;;;;;;;;;;;16.80;42.60;;;;;;1608978;73;584;-69
2024/01/09 10:47:31;;;;;;;;;;;16.90;42.80;;;;;;1600912;73;1928;-70
2024/01/09 10:49:33;;;;;;;;;;;16.90;42.70;;;;;;1605847;73;721;-72
2024/01/09 10:51:35;;;;;;;;;;;16.80;42.60;;;;;;1586869;73;749;-70
2024/01/09 10:53:37;;;;;;;;;;;16.90;42.70;;;;;;1605537;73;716;-72
2024/01/09 10:55:38;;;;;;;;;;;16.80;42.70;;;;;;1604337;72;733;-71
2024/01/09 10:57:40;;;;;;;;;;;16.80;42.60;;;;;;1594204;73;1063;-72
2024/01/09 10:59:43;;;;;;;;;;;16.80;42.60;;;;;;1599054;73;812;-69
2024/01/09 11:01:45;;;;;;;;;;;16.80;42.60;;;;;;1611508;73;805;-72
2024/01/09 11:03:47;;;;;;;;;;;16.80;42.60;;;;;;1602559;72;699;-71
2024/01/09 11:05:49;;;;;;;;;;;16.90;42.80;;;;;;1602623;73;1130;-71
2024/01/09 11:07:51;;;;;;;;;;;16.80;42.70;;;;;;1605057;73;1944;-68
2024/01/09 11:09:53;;;;;;;;;;;16.80;42.60;;;;;;1600356;73;678;-68
2024/01/09 11:11:55;;;;;;;;;;;16.90;42.80;;;;;;1607398;73;738;-69
2024/01/09 11:13:57;;;;;;;;;;;16.90;42.70;;;;;;1596475;73;770;-71
2024/01/09 11:15:59;;;;;;;;;;;16.80;42.60;;;;;;1599624;73;1148;-71
2024/01/09 11:18:02;;;;;;;;;;;16.80;42.70;;;;;;1600701;73;1607;-69
2024/01/09 11:20:07;;;;;;;;;;;16.80;42.60;;;;;;1605853;73;807;-73
2024/01/09 11:22:19;;;;;;;;;;;16.80;42.70;;;;;;1591607;73;753;-72
2024/01/09 11:24:27;;;;;;;;;;;16.80;42.60;;;;;;1603359;73;641;-70
2024/01/09 11:26:30;;;;;;;;;;;16.80;42.60;;;;;;1595079;73;1155;-72
2024/01/09 11:28:38;;;;;;;;;;;16.90;42.70;;;;;;1606302;73;1920;-72
2024/01/09 11:30:40;;;;;;;;;;;16.80;42.60;;;;;;1600085;73;709;-71
2024/01/09 11:32:42;;;;;;;;;;;16.90;42.70;;;;;;1591150;73;671;-70
2024/01/09 11:34:44;;;;;;;;;;;16.80;42.60;;;;;;1590559;72;710;-69
2024/01/09 11:36:46;;;;;;;;;;;16.80;42.60;;;;;;1591595;73;1147;-71
2024/01/09 11:38:49;;;;;;;;;;;16.70;42.60;;;;;;1602193;72;700;-68
2024/01/09 11:40:50;;;;;;;;;;;16.80;42.60;;;;;;1599983;73;802;-70
2024/01/09 11:42:52;;;;;;;;;;;16.80;42.60;;;;;;1601624;73;713;-71
2024/01/09 11:44:54;;;;;;;;;;;16.80;42.60;;;;;;1596938;73;794;-70
2024/01/09 11:46:56;;;;;;;;;;;16.70;42.60;;;;;;1600232;73;1159;-72
2024/01/09 11:48:59;;;;;;;;;;;16.80;42.60;;;;;;1592356;73;1933;-72
2024/01/09 11:51:02;;;;;;;;;;;16.80;42.60;;;;;;1596831;73;609;-69
2024/01/09 11:53:03;;;;;;;;;;;16.80;42.60;;;;;;1603693;73;738;-69
2024/01/09 11:55:05;;;;;;;;;;;16.80;42.70;;;;;;1593153;73;737;-72
2024/01/09 11:57:09;;;;;;;;;;;16.90;42.70;;;;;;1592431;73;1210;-71
2024/01/09 11:59:11;;;;;;;;;;;16.80;42.60;;;;;;1610704;73;666;-71
2024/01/09 12:01:13;;;;;;;;;;;16.80;42.60;;;;;;1600412;73;739;-73
2024/01/09 12:03:16;;;;;;;;;;;16.80;42.60;;;;;;1602748;73;710;-73
2024/01/09 12:05:18;;;;;;;;;;;16.80;42.60;;;;;;1603208;73;737;-69
2024/01/09 12:07:20;;;;;;;;;;;16.80;42.70;;;;;;1584606;73;1082;-72